sensor_id;sensor_type;location;lat;lon;timestamp;pressure;altitude;pressure_sealevel;temperature;humidity
11347;BME280;5728;42.722;23.258;2023-02-28T00:36:32;95236.44;;;7.36;100.00
11347;BME280;5728;42.722;23.258;2023-02-28T00:38:59;95238.94;;;7.16;100.00
11347;BME280;5728;42.722;23.258;2023-02-28T00:41:26;95253.50;;;7.06;100.00
11347;BME280;5728;42.722;23.258;2023-02-28T00:43:52;95243.28;;;7.26;100.00
11347;BME280;5728;42.722;23.258;2023-02-28T00:46:19;95236.34;;;7.12;100.00
11347;BME280;5728;42.722;23.258;2023-02-28T00:48:46;95233.72;;;7.05;100.00
11347;BME280;5728;42.722;23.258;2023-02-28T00:51:13;95232.97;;;7.28;100.00
11347;BME280;5728;42.722;23.258;2023-02-28T00:53:41;95224.31;;;7.14;100.00
11347;BME280;5728;42.722;23.258;2023-02-28T00:56:08;95237.97;;;6.94;100.00
11347;BME280;5728;42.722;23.258;2023-02-28T00:58:34;95238.72;;;6.74;100.00
11347;BME280;5728;42.722;23.258;2023-02-28T01:01:01;95237.88;;;6.76;100.00
11347;BME280;5728;42.722;23.258;2023-02-28T01:03:28;95228.56;;;7.02;100.00
11347;BME280;5728;42.722;23.258;2023-02-28T01:05:55;95226.06;;;7.21;100.00
11347;BME280;5728;42.722;23.258;2023-02-28T01:08:21;95222.59;;;7.13;100.00
11347;BME280;5728;42.722;23.258;2023-02-28T01:10:50;95231.97;;;7.00;100.00
11347;BME280;5728;42.722;23.258;2023-02-28T01:13:16;95222.59;;;7.16;100.00
11347;BME280;5728;42.722;23.258;2023-02-28T01:15:46;95222.38;;;6.73;100.00
11347;BME280;5728;42.722;23.258;2023-02-28T01:18:15;95227.69;;;7.00;100.00
11347;BME280;5728;42.722;23.258;2023-02-28T01:20:42;95229.25;;;6.77;100.00
11347;BME280;5728;42.722;23.258;2023-02-28T01:23:09;95241.16;;;6.54;100.00
11347;BME280;5728;42.722;23.258;2023-02-28T01:25:36;95239.38;;;6.49;100.00
11347;BME280;5728;42.722;23.258;2023-02-28T01:28:05;95228.34;;;6.68;100.00
11347;BME280;5728;42.722;23.258;2023-02-28T01:30:32;95233.38;;;6.47;100.00
11347;BME280;5728;42.722;23.258;2023-02-28T01:33:00;95220.41;;;6.36;100.00
11347;BME280;5728;42.722;23.258;2023-02-28T01:35:32;95231.72;;;6.58;100.00
11347;BME280;5728;42.722;23.258;2023-02-28T01:37:59;95216.22;;;6.53;100.00
11347;BME280;5728;42.722;23.258;2023-02-28T01:40:25;95213.78;;;6.77;100.00
11347;BME280;5728;42.722;23.258;2023-02-28T01:42:52;95220.81;;;7.02;100.00
11347;BME280;5728;42.722;23.258;2023-02-28T01:45:25;95224.00;;;6.56;100.00
11347;BME280;5728;42.722;23.258;2023-02-28T01:47:54;95242.47;;;6.10;100.00
11347;BME280;5728;42.722;23.258;2023-02-28T01:50:24;95228.81;;;6.14;100.00
11347;BME280;5728;42.722;23.258;2023-02-28T01:52:54;95223.75;;;6.26;100.00
11347;BME280;5728;42.722;23.258;2023-02-28T01:55:23;95216.34;;;6.67;100.00
11347;BME280;5728;42.722;23.258;2023-02-28T01:57:55;95219.72;;;6.63;100.00
11347;BME280;5728;42.722;23.258;2023-02-28T02:00:26;95222.38;;;6.73;100.00
11347;BME280;5728;42.722;23.258;2023-02-28T02:02:56;95226.56;;;6.56;100.00
11347;BME280;5728;42.722;23.258;2023-02-28T02:05:25;95229.16;;;6.59;100.00
11347;BME280;5728;42.722;23.258;2023-02-28T02:07:55;95229.50;;;5.96;100.00
11347;BME280;5728;42.722;23.258;2023-02-28T02:10:29;95225.56;;;6.37;100.00
11347;BME280;5728;42.722;23.258;2023-02-28T02:13:21;95228.28;;;6.54;100.00
11347;BME280;5728;42.722;23.258;2023-02-28T02:16:02;95217.25;;;6.82;100.00
11347;BME280;5728;42.722;23.258;2023-02-28T02:18:34;95216.44;;;6.88;100.00
11347;BME280;5728;42.722;23.258;2023-02-28T02:24:49;95225.56;;;6.37;100.00
11347;BME280;5728;42.722;23.258;2023-02-28T02:27:33;95224.63;;;6.28;100.00
11347;BME280;5728;42.722;23.258;2023-02-28T02:30:21;95217.13;;;6.58;100.00
11347;BME280;5728;42.722;23.258;2023-02-28T02:35:55;95218.03;;;6.66;100.00
11347;BME280;5728;42.722;23.258;2023-02-28T02:38:32;95229.66;;;6.11;100.00
11347;BME280;5728;42.722;23.258;2023-02-28T02:41:07;95226.88;;;5.92;100.00
11347;BME280;5728;42.722;23.258;2023-02-28T02:43:37;95233.88;;;6.09;100.00
11347;BME280;5728;42.722;23.258;2023-02-28T02:46:10;95237.63;;;6.44;100.00
11347;BME280;5728;42.722;23.258;2023-02-28T02:48:40;95238.41;;;6.34;100.00
11347;BME280;5728;42.722;23.258;2023-02-28T02:51:12;95230.66;;;6.30;100.00
11347;BME280;5728;42.722;23.258;2023-02-28T02:53:43;95232.16;;;6.07;100.00
11347;BME280;5728;42.722;23.258;2023-02-28T02:56:15;95237.44;;;6.19;100.00
11347;BME280;5728;42.722;23.258;2023-02-28T02:58:43;95229.06;;;6.44;100.00
11347;BME280;5728;42.722;23.258;2023-02-28T03:01:14;95226.66;;;6.71;100.00
11347;BME280;5728;42.722;23.258;2023-02-28T03:03:43;95255.84;;;6.70;100.00
11347;BME280;5728;42.722;23.258;2023-02-28T03:06:14;95239.59;;;6.80;100.00
11347;BME280;5728;42.722;23.258;2023-02-28T03:08:41;95243.84;;;6.75;100.00
11347;BME280;5728;42.722;23.258;2023-02-28T03:11:12;95250.66;;;6.67;100.00
11347;BME280;5728;42.722;23.258;2023-02-28T03:14:06;95249.97;;;6.89;100.00
11347;BME280;5728;42.722;23.258;2023-02-28T03:16:50;95249.47;;;6.23;100.00
11347;BME280;5728;42.722;23.258;2023-02-28T03:19:34;95242.75;;;6.40;100.00
11347;BME280;5728;42.722;23.258;2023-02-28T03:22:14;95265.81;;;6.28;100.00
11347;BME280;5728;42.722;23.258;2023-02-28T03:24:45;95260.09;;;5.72;100.00
11347;BME280;5728;42.722;23.258;2023-02-28T03:27:19;95272.22;;;5.82;100.00
11347;BME280;5728;42.722;23.258;2023-02-28T03:29:53;95267.06;;;5.82;100.00
11347;BME280;5728;42.722;23.258;2023-02-28T03:32:26;95300.97;;;6.23;100.00
11347;BME280;5728;42.722;23.258;2023-02-28T03:34:58;95270.06;;;6.21;100.00
11347;BME280;5728;42.722;23.258;2023-02-28T03:37:31;95278.00;;;6.46;100.00
11347;BME280;5728;42.722;23.258;2023-02-28T03:40:03;95275.44;;;6.50;100.00
11347;BME280;5728;42.722;23.258;2023-02-28T03:42:35;95285.00;;;6.63;100.00
11347;BME280;5728;42.722;23.258;2023-02-28T03:45:05;95281.00;;;7.07;100.00
11347;BME280;5728;42.722;23.258;2023-02-28T03:47:38;95279.31;;;7.13;100.00
11347;BME280;5728;42.722;23.258;2023-02-28T03:50:10;95283.56;;;7.03;100.00
11347;BME280;5728;42.722;23.258;2023-02-28T03:52:44;95275.91;;;7.17;100.00
11347;BME280;5728;42.722;23.258;2023-02-28T03:55:13;95283.72;;;7.30;100.00
11347;BME280;5728;42.722;23.258;2023-02-28T03:57:46;95286.28;;;7.29;100.00
11347;BME280;5728;42.722;23.258;2023-02-28T04:00:19;95287.28;;;7.55;100.00
11347;BME280;5728;42.722;23.258;2023-02-28T04:02:46;95295.00;;;7.47;100.00
11347;BME280;5728;42.722;23.258;2023-02-28T04:05:18;95293.31;;;7.63;100.00
11347;BME280;5728;42.722;23.258;2023-02-28T04:07:46;95291.59;;;7.59;100.00
11347;BME280;5728;42.722;23.258;2023-02-28T04:10:14;95281.28;;;7.62;100.00
11347;BME280;5728;42.722;23.258;2023-02-28T04:12:42;95287.38;;;7.84;100.00
11347;BME280;5728;42.722;23.258;2023-02-28T04:15:09;95288.28;;;7.96;100.00
11347;BME280;5728;42.722;23.258;2023-02-28T04:17:36;95286.56;;;7.92;100.00
11347;BME280;5728;42.722;23.258;2023-02-28T04:20:03;95282.22;;;7.82;100.00
11347;BME280;5728;42.722;23.258;2023-02-28T04:22:35;95282.22;;;7.79;100.00
11347;BME280;5728;42.722;23.258;2023-02-28T04:25:04;95283.00;;;7.57;100.00
11347;BME280;5728;42.722;23.258;2023-02-28T04:27:32;95291.63;;;7.65;100.00
11347;BME280;5728;42.722;23.258;2023-02-28T04:29:58;95291.66;;;7.74;100.00
11347;BME280;5728;42.722;23.258;2023-02-28T04:32:25;95284.81;;;7.91;100.00
11347;BME280;5728;42.722;23.258;2023-02-28T04:34:52;95285.59;;;7.61;100.00
11347;BME280;5728;42.722;23.258;2023-02-28T04:37:19;95291.59;;;7.59;100.00
11347;BME280;5728;42.722;23.258;2023-02-28T04:39:46;95290.75;;;7.66;100.00
11347;BME280;5728;42.722;23.258;2023-02-28T04:42:15;95295.09;;;7.76;100.00
11347;BME280;5728;42.722;23.258;2023-02-28T04:44:41;95293.25;;;7.45;100.00
11347;BME280;5728;42.722;23.258;2023-02-28T04:47:08;95294.03;;;7.27;100.00
11347;BME280;5728;42.722;23.258;2023-02-28T04:49:35;95313.81;;;7.30;100.00
11347;BME280;5728;42.722;23.258;2023-02-28T04:52:05;95307.00;;;7.42;100.00
11347;BME280;5728;42.722;23.258;2023-02-28T04:54:32;95308.75;;;7.48;100.00
11347;BME280;5728;42.722;23.258;2023-02-28T04:57:00;95310.50;;;7.58;100.00
11347;BME280;5728;42.722;23.258;2023-02-28T04:59:28;95307.97;;;7.68;100.00
11347;BME280;5728;42.722;23.258;2023-02-28T05:01:55;95316.63;;;7.81;100.00
11347;BME280;5728;42.722;23.258;2023-02-28T05:04:21;95309.75;;;7.82;100.00
11347;BME280;5728;42.722;23.258;2023-02-28T05:06:48;95317.53;;;7.89;100.00
11347;BME280;5728;42.722;23.258;2023-02-28T05:09:15;95312.34;;;7.85;100.00
11347;BME280;5728;42.722;23.258;2023-02-28T05:11:41;95323.53;;;7.84;100.00
11347;BME280;5728;42.722;23.258;2023-02-28T05:14:10;95308.06;;;7.91;100.00
11347;BME280;5728;42.722;23.258;2023-02-28T05:16:39;95312.31;;;7.72;100.00
11347;BME280;5728;42.722;23.258;2023-02-28T05:19:06;95332.97;;;7.83;100.00
11347;BME280;5728;42.722;23.258;2023-02-28T05:21:34;95309.75;;;7.80;99.62
11347;BME280;5728;42.722;23.258;2023-02-28T05:24:03;95318.44;;;8.06;99.35
11347;BME280;5728;42.722;23.258;2023-02-28T05:26:30;95319.06;;;7.48;99.75
11347;BME280;5728;42.722;23.258;2023-02-28T05:28:57;95323.41;;;7.52;100.00
11347;BME280;5728;42.722;23.258;2023-02-28T05:31:24;95330.44;;;7.89;100.00
11347;BME280;5728;42.722;23.258;2023-02-28T05:33:52;95339.06;;;7.99;100.00
11347;BME280;5728;42.722;23.258;2023-02-28T05:36:20;95337.41;;;8.13;100.00
11347;BME280;5728;42.722;23.258;2023-02-28T05:38:47;95333.09;;;8.10;100.00
11347;BME280;5728;42.722;23.258;2023-02-28T05:41:14;95341.63;;;7.90;100.00
11347;BME280;5728;42.722;23.258;2023-02-28T05:43:41;95351.97;;;7.94;100.00
11347;BME280;5728;42.722;23.258;2023-02-28T05:46:10;95354.56;;;7.97;100.00
11347;BME280;5728;42.722;23.258;2023-02-28T05:48:38;95341.69;;;8.11;100.00
11347;BME280;5728;42.722;23.258;2023-02-28T05:51:07;95338.94;;;7.67;100.00
11347;BME280;5728;42.722;23.258;2023-02-28T05:53:35;95344.22;;;7.93;100.00
11347;BME280;5728;42.722;23.258;2023-02-28T05:56:03;95343.34;;;7.88;99.96
11347;BME280;5728;42.722;23.258;2023-02-28T05:58:30;95347.69;;;8.02;99.85
11347;BME280;5728;42.722;23.258;2023-02-28T06:00:57;95346.00;;;8.16;99.82
11347;BME280;5728;42.722;23.258;2023-02-28T06:03:24;95344.38;;;8.35;98.30
11347;BME280;5728;42.722;23.258;2023-02-28T06:05:50;95351.22;;;8.25;97.82
11347;BME280;5728;42.722;23.258;2023-02-28T06:08:19;95353.00;;;8.36;98.65
11347;BME280;5728;42.722;23.258;2023-02-28T06:10:46;95353.84;;;8.31;98.40
11347;BME280;5728;42.722;23.258;2023-02-28T06:13:12;95354.69;;;8.33;98.88
11347;BME280;5728;42.722;23.258;2023-02-28T06:15:39;95357.28;;;8.30;97.70
11347;BME280;5728;42.722;23.258;2023-02-28T06:18:06;95355.56;;;8.32;98.18
11347;BME280;5728;42.722;23.258;2023-02-28T06:20:33;95347.84;;;8.36;98.41
11347;BME280;5728;42.722;23.258;2023-02-28T06:23:01;95357.28;;;8.29;98.46
11347;BME280;5728;42.722;23.258;2023-02-28T06:25:29;95363.25;;;8.23;99.26
11347;BME280;5728;42.722;23.258;2023-02-28T06:27:56;95361.63;;;8.42;99.75
11347;BME280;5728;42.722;23.258;2023-02-28T06:30:23;95356.44;;;8.44;98.73
11347;BME280;5728;42.722;23.258;2023-02-28T06:32:52;95356.44;;;8.30;98.45
11347;BME280;5728;42.722;23.258;2023-02-28T06:35:19;95362.38;;;8.15;99.33
11347;BME280;5728;42.722;23.258;2023-02-28T06:37:45;95372.66;;;8.06;100.00
11347;BME280;5728;42.722;23.258;2023-02-28T06:40:13;95377.09;;;8.30;100.00
11347;BME280;5728;42.722;23.258;2023-02-28T06:42:41;95376.25;;;8.36;100.00
11347;BME280;5728;42.722;23.258;2023-02-28T06:45:09;95366.78;;;8.41;99.04
11347;BME280;5728;42.722;23.258;2023-02-28T06:47:37;95377.13;;;8.44;98.48
11347;BME280;5728;42.722;23.258;2023-02-28T06:50:05;95380.59;;;8.55;98.37
11347;BME280;5728;42.722;23.258;2023-02-28T06:52:32;95379.75;;;8.77;97.39
11347;BME280;5728;42.722;23.258;2023-02-28T06:55:01;95375.47;;;8.76;97.39
11347;BME280;5728;42.722;23.258;2023-02-28T06:57:29;95381.47;;;8.51;98.66
11347;BME280;5728;42.722;23.258;2023-02-28T06:59:59;95378.88;;;8.57;99.17
11347;BME280;5728;42.722;23.258;2023-02-28T07:02:27;95383.22;;;8.61;99.02
11347;BME280;5728;42.722;23.258;2023-02-28T07:04:54;95384.03;;;8.52;98.81
11347;BME280;5728;42.722;23.258;2023-02-28T07:07:21;95388.34;;;8.55;98.10
11347;BME280;5728;42.722;23.258;2023-02-28T07:09:47;95382.31;;;8.62;98.06
11347;BME280;5728;42.722;23.258;2023-02-28T07:12:14;95383.22;;;8.79;97.11
11347;BME280;5728;42.722;23.258;2023-02-28T07:14:41;95383.22;;;8.89;97.33
11347;BME280;5728;42.722;23.258;2023-02-28T07:17:10;95380.59;;;8.47;97.26
11347;BME280;5728;42.722;23.258;2023-02-28T07:19:37;95390.13;;;8.71;98.27
11347;BME280;5728;42.722;23.258;2023-02-28T07:22:04;95415.06;;;8.64;98.12
11347;BME280;5728;42.722;23.258;2023-02-28T07:24:31;95383.22;;;8.70;98.63
11347;BME280;5728;42.722;23.258;2023-02-28T07:26:58;95380.63;;;8.89;96.81
11347;BME280;5728;42.722;23.258;2023-02-28T07:29:26;95389.25;;;8.82;96.93
11347;BME280;5728;42.722;23.258;2023-02-28T07:31:52;95385.78;;;8.79;97.66
11347;BME280;5728;42.722;23.258;2023-02-28T07:34:21;95392.69;;;8.80;98.12
11347;BME280;5728;42.722;23.258;2023-02-28T07:36:48;95381.34;;;8.20;98.88
11347;BME280;5728;42.722;23.258;2023-02-28T07:39:19;95386.47;;;8.11;100.00
11347;BME280;5728;42.722;23.258;2023-02-28T07:41:46;95397.78;;;8.42;100.00
11347;BME280;5728;42.722;23.258;2023-02-28T07:44:13;95386.56;;;8.32;100.00
11347;BME280;5728;42.722;23.258;2023-02-28T07:46:40;95383.00;;;8.09;100.00
11347;BME280;5728;42.722;23.258;2023-02-28T07:49:06;95382.97;;;7.94;100.00
11347;BME280;5728;42.722;23.258;2023-02-28T07:51:34;95379.72;;;8.50;100.00
11347;BME280;5728;42.722;23.258;2023-02-28T07:54:01;95377.03;;;8.19;100.00
11347;BME280;5728;42.722;23.258;2023-02-28T07:56:28;95378.88;;;8.51;100.00
11347;BME280;5728;42.722;23.258;2023-02-28T07:58:55;95386.66;;;8.75;100.00
11347;BME280;5728;42.722;23.258;2023-02-28T08:01:21;95376.31;;;8.69;98.95
11347;BME280;5728;42.722;23.258;2023-02-28T08:03:48;95374.53;;;8.47;100.00
11347;BME280;5728;42.722;23.258;2023-02-28T08:06:17;95381.44;;;8.46;100.00
11347;BME280;5728;42.722;23.258;2023-02-28T08:08:46;95375.44;;;8.70;100.00
11347;BME280;5728;42.722;23.258;2023-02-28T08:11:14;95374.59;;;8.81;100.00
11347;BME280;5728;42.722;23.258;2023-02-28T08:13:41;95376.22;;;8.29;100.00
11347;BME280;5728;42.722;23.258;2023-02-28T08:16:09;95375.31;;;8.26;100.00
11347;BME280;5728;42.722;23.258;2023-02-28T08:18:36;95387.44;;;8.44;100.00
11347;BME280;5728;42.722;23.258;2023-02-28T08:21:06;95388.38;;;8.62;100.00
11347;BME280;5728;42.722;23.258;2023-02-28T08:23:33;95401.34;;;9.05;100.00
11347;BME280;5728;42.722;23.258;2023-02-28T08:26:02;95394.41;;;8.67;98.81
11347;BME280;5728;42.722;23.258;2023-02-28T08:28:29;95392.56;;;8.28;99.68
11347;BME280;5728;42.722;23.258;2023-02-28T08:30:56;95395.91;;;8.11;100.00
11347;BME280;5728;42.722;23.258;2023-02-28T08:33:23;95384.00;;;8.42;100.00
11347;BME280;5728;42.722;23.258;2023-02-28T08:35:52;95388.31;;;8.41;100.00
11347;BME280;5728;42.722;23.258;2023-02-28T08:38:20;95388.28;;;8.33;100.00
11347;BME280;5728;42.722;23.258;2023-02-28T08:40:46;95384.88;;;8.38;100.00
11347;BME280;5728;42.722;23.258;2023-02-28T08:43:14;95384.75;;;8.07;100.00
11347;BME280;5728;42.722;23.258;2023-02-28T08:45:41;95383.16;;;8.38;100.00
11347;BME280;5728;42.722;23.258;2023-02-28T08:48:08;95390.91;;;8.35;100.00
11347;BME280;5728;42.722;23.258;2023-02-28T08:50:35;95393.59;;;8.91;100.00
11347;BME280;5728;42.722;23.258;2023-02-28T08:53:02;95386.66;;;8.87;100.00
11347;BME280;5728;42.722;23.258;2023-02-28T08:55:28;95395.28;;;8.71;100.00
11347;BME280;5728;42.722;23.258;2023-02-28T08:57:55;95400.47;;;9.04;100.00
11347;BME280;5728;42.722;23.258;2023-02-28T09:00:23;95389.28;;;9.16;99.58
11347;BME280;5728;42.722;23.258;2023-02-28T09:02:50;95393.56;;;8.82;98.88
11347;BME280;5728;42.722;23.258;2023-02-28T09:05:17;95392.69;;;8.63;100.00
11347;BME280;5728;42.722;23.258;2023-02-28T09:07:43;95395.28;;;8.83;100.00
11347;BME280;5728;42.722;23.258;2023-02-28T09:10:10;95383.13;;;8.27;100.00
11347;BME280;5728;42.722;23.258;2023-02-28T09:12:37;95388.28;;;8.37;100.00
11347;BME280;5728;42.722;23.258;2023-02-28T09:15:05;95383.22;;;8.61;100.00
11347;BME280;5728;42.722;23.258;2023-02-28T09:17:34;95391.88;;;8.96;100.00
11347;BME280;5728;42.722;23.258;2023-02-28T09:20:01;95385.81;;;9.27;99.05
11347;BME280;5728;42.722;23.258;2023-02-28T09:22:27;95379.78;;;8.99;98.40
11347;BME280;5728;42.722;23.258;2023-02-28T09:24:54;95379.78;;;9.04;99.14
11347;BME280;5728;42.722;23.258;2023-02-28T09:27:21;95382.38;;;8.93;99.63
11347;BME280;5728;42.722;23.258;2023-02-28T09:29:48;95377.22;;;9.09;99.56
11347;BME280;5728;42.722;23.258;2023-02-28T09:32:14;95377.19;;;9.27;99.56
11347;BME280;5728;42.722;23.258;2023-02-28T09:34:44;95381.44;;;9.69;99.00
11347;BME280;5728;42.722;23.258;2023-02-28T09:37:11;95383.19;;;9.63;96.97
11347;BME280;5728;42.722;23.258;2023-02-28T09:39:38;95374.63;;;9.21;99.24
11347;BME280;5728;42.722;23.258;2023-02-28T09:42:05;95402.22;;;9.41;99.07
11347;BME280;5728;42.722;23.258;2023-02-28T09:44:37;95376.28;;;9.44;98.49
11347;BME280;5728;42.722;23.258;2023-02-28T09:47:10;95369.41;;;9.46;98.76
11347;BME280;5728;42.722;23.258;2023-02-28T09:49:41;95365.03;;;9.70;98.96
11347;BME280;5728;42.722;23.258;2023-02-28T09:52:12;95367.50;;;10.03;98.59
11347;BME280;5728;42.722;23.258;2023-02-28T09:54:40;95363.81;;;10.55;97.72
11347;BME280;5728;42.722;23.258;2023-02-28T09:57:10;95374.25;;;10.49;95.89
11347;BME280;5728;42.722;23.258;2023-02-28T09:59:52;95360.53;;;10.26;95.85
11347;BME280;5728;42.722;23.258;2023-02-28T10:02:43;95362.84;;;10.73;94.38
11347;BME280;5728;42.722;23.258;2023-02-28T10:05:14;95356.94;;;10.54;94.93
11347;BME280;5728;42.722;23.258;2023-02-28T10:07:53;95346.59;;;10.45;95.78
11347;BME280;5728;42.722;23.258;2023-02-28T10:10:27;95342.69;;;11.10;94.44
11347;BME280;5728;42.722;23.258;2023-02-28T10:12:57;95333.88;;;11.27;92.85
11347;BME280;5728;42.722;23.258;2023-02-28T10:15:27;95352.53;;;11.67;91.72
11347;BME280;5728;42.722;23.258;2023-02-28T10:18:00;95328.13;;;11.83;91.02
11347;BME280;5728;42.722;23.258;2023-02-28T10:20:30;95331.16;;;12.20;89.63
11347;BME280;5728;42.722;23.258;2023-02-28T10:23:07;95327.00;;;12.04;88.83
11347;BME280;5728;42.722;23.258;2023-02-28T10:25:37;95334.94;;;11.93;89.37
11347;BME280;5728;42.722;23.258;2023-02-28T10:28:10;95329.28;;;12.30;90.53
11347;BME280;5728;42.722;23.258;2023-02-28T10:30:40;95320.34;;;12.49;86.56
11347;BME280;5728;42.722;23.258;2023-02-28T10:33:16;95315.84;;;12.61;87.65
11347;BME280;5728;42.722;23.258;2023-02-28T10:35:44;95305.56;;;12.52;87.23
11347;BME280;5728;42.722;23.258;2023-02-28T10:38:16;95314.31;;;12.48;86.78
11347;BME280;5728;42.722;23.258;2023-02-28T10:40:43;95305.72;;;12.43;86.28
11347;BME280;5728;42.722;23.258;2023-02-28T10:43:19;95302.56;;;12.18;85.76
11347;BME280;5728;42.722;23.258;2023-02-28T10:45:56;95302.28;;;12.40;83.93
11347;BME280;5728;42.722;23.258;2023-02-28T10:48:30;95299.69;;;12.40;83.25
11347;BME280;5728;42.722;23.258;2023-02-28T10:50:58;95295.56;;;12.24;83.42
11347;BME280;5728;42.722;23.258;2023-02-28T10:53:32;95282.31;;;12.42;83.12
11347;BME280;5728;42.722;23.258;2023-02-28T10:56:01;95286.38;;;12.59;82.74
11347;BME280;5728;42.722;23.258;2023-02-28T10:58:31;95284.16;;;12.34;83.94
11347;BME280;5728;42.722;23.258;2023-02-28T11:01:00;95267.41;;;12.53;84.00
11347;BME280;5728;42.722;23.258;2023-02-28T11:03:31;95267.84;;;12.79;83.30
11347;BME280;5728;42.722;23.258;2023-02-28T11:06:05;95255.28;;;13.05;82.82
11347;BME280;5728;42.722;23.258;2023-02-28T11:08:34;95251.44;;;13.27;81.82
11347;BME280;5728;42.722;23.258;2023-02-28T11:11:09;95250.56;;;13.27;81.05
11347;BME280;5728;42.722;23.258;2023-02-28T11:13:36;95265.69;;;13.05;82.07
11347;BME280;5728;42.722;23.258;2023-02-28T11:16:06;95249.09;;;13.12;80.54
11347;BME280;5728;42.722;23.258;2023-02-28T11:18:40;95272.97;;;12.85;81.22
11347;BME280;5728;42.722;23.258;2023-02-28T11:21:08;95284.69;;;12.58;82.13
11347;BME280;5728;42.722;23.258;2023-02-28T11:23:40;95264.94;;;12.44;80.66
11347;BME280;5728;42.722;23.258;2023-02-28T11:26:07;95253.66;;;12.45;82.16
11347;BME280;5728;42.722;23.258;2023-02-28T11:28:38;95254.25;;;12.62;81.55
11347;BME280;5728;42.722;23.258;2023-02-28T11:31:15;95243.66;;;12.74;80.52
11347;BME280;5728;42.722;23.258;2023-02-28T11:33:47;95239.09;;;12.87;80.92
11347;BME280;5728;42.722;23.258;2023-02-28T11:36:19;95244.13;;;12.97;80.82
11347;BME280;5728;42.722;23.258;2023-02-28T11:38:48;95240.88;;;12.86;80.82
11347;BME280;5728;42.722;23.258;2023-02-28T11:41:33;95235.19;;;13.15;79.60
11347;BME280;5728;42.722;23.258;2023-02-28T11:44:11;95238.13;;;13.42;78.28
11347;BME280;5728;42.722;23.258;2023-02-28T11:46:47;95232.25;;;13.33;78.42
11347;BME280;5728;42.722;23.258;2023-02-28T11:49:29;95235.22;;;13.59;77.68
11347;BME280;5728;42.722;23.258;2023-02-28T11:52:00;95235.91;;;13.69;76.83
11347;BME280;5728;42.722;23.258;2023-02-28T11:54:47;95242.22;;;13.56;77.25
11347;BME280;5728;42.722;23.258;2023-02-28T11:57:31;95248.41;;;13.50;77.33
11347;BME280;5728;42.722;23.258;2023-02-28T12:00:06;95245.22;;;13.36;76.76
11347;BME280;5728;42.722;23.258;2023-02-28T12:02:42;95233.44;;;13.15;77.47
11347;BME280;5728;42.722;23.258;2023-02-28T12:05:24;95231.66;;;13.19;77.34
11347;BME280;5728;42.722;23.258;2023-02-28T12:08:06;95236.97;;;13.59;75.88
11347;BME280;5728;42.722;23.258;2023-02-28T12:10:45;95229.69;;;13.30;77.00
11347;BME280;5728;42.722;23.258;2023-02-28T12:13:20;95223.75;;;13.23;76.56
11347;BME280;5728;42.722;23.258;2023-02-28T12:19:00;95236.19;;;13.54;75.24
11347;BME280;5728;42.722;23.258;2023-02-28T12:21:36;95226.22;;;13.74;74.91
11347;BME280;5728;42.722;23.258;2023-02-28T12:24:18;95223.63;;;13.29;74.81
11347;BME280;5728;42.722;23.258;2023-02-28T12:26:53;95229.25;;;13.53;74.20
11347;BME280;5728;42.722;23.258;2023-02-28T12:29:24;95219.50;;;13.64;74.41
11347;BME280;5728;42.722;23.258;2023-02-28T12:31:58;95224.78;;;14.00;73.86
11347;BME280;5728;42.722;23.258;2023-02-28T12:34:30;95226.78;;;14.29;73.38
11347;BME280;5728;42.722;23.258;2023-02-28T12:37:01;95213.59;;;13.97;72.30
11347;BME280;5728;42.722;23.258;2023-02-28T12:39:34;95224.88;;;13.55;73.86
11347;BME280;5728;42.722;23.258;2023-02-28T12:42:07;95225.88;;;13.48;75.03
11347;BME280;5728;42.722;23.258;2023-02-28T12:44:43;95230.50;;;13.33;74.74
11347;BME280;5728;42.722;23.258;2023-02-28T12:47:14;95228.28;;;13.12;75.86
11347;BME280;5728;42.722;23.258;2023-02-28T12:49:45;95213.63;;;13.05;76.82
11347;BME280;5728;42.722;23.258;2023-02-28T12:52:14;95227.19;;;13.25;76.46
11347;BME280;5728;42.722;23.258;2023-02-28T12:54:47;95213.91;;;13.37;76.07
11347;BME280;5728;42.722;23.258;2023-02-28T12:57:23;95210.44;;;13.38;75.11
11347;BME280;5728;42.722;23.258;2023-02-28T12:59:54;95208.13;;;13.23;75.29
11347;BME280;5728;42.722;23.258;2023-02-28T13:02:57;95233.56;;;13.08;75.90
11347;BME280;5728;42.722;23.258;2023-02-28T13:05:41;95224.09;;;13.02;75.85
11347;BME280;5728;42.722;23.258;2023-02-28T13:08:27;95207.97;;;12.82;76.61
11347;BME280;5728;42.722;23.258;2023-02-28T13:11:03;95201.28;;;12.67;77.23
11347;BME280;5728;42.722;23.258;2023-02-28T13:13:31;95206.19;;;12.84;77.35
11347;BME280;5728;42.722;23.258;2023-02-28T13:16:03;95196.53;;;12.91;77.80
11347;BME280;5728;42.722;23.258;2023-02-28T13:18:33;95209.78;;;12.77;78.02
11347;BME280;5728;42.722;23.258;2023-02-28T13:21:04;95207.09;;;12.83;77.54
11347;BME280;5728;42.722;23.258;2023-02-28T13:23:39;95207.22;;;12.74;77.78
11347;BME280;5728;42.722;23.258;2023-02-28T13:26:06;95213.53;;;12.61;78.36
11347;BME280;5728;42.722;23.258;2023-02-28T13:32:32;95202.50;;;12.44;78.82
11347;BME280;5728;42.722;23.258;2023-02-28T13:38:33;95198.25;;;12.40;78.44
11347;BME280;5728;42.722;23.258;2023-02-28T13:41:40;95188.84;;;12.33;78.70
11347;BME280;5728;42.722;23.258;2023-02-28T13:44:09;95190.50;;;12.37;78.88
11347;BME280;5728;42.722;23.258;2023-02-28T13:49:26;95177.53;;;12.35;79.51
11347;BME280;5728;42.722;23.258;2023-02-28T13:51:56;95174.06;;;12.35;78.93
11347;BME280;5728;42.722;23.258;2023-02-28T13:54:42;95178.97;;;12.51;78.59
11347;BME280;5728;42.722;23.258;2023-02-28T13:57:23;95185.41;;;12.31;78.52
11347;BME280;5728;42.722;23.258;2023-02-28T14:00:02;95197.75;;;12.16;78.83
11347;BME280;5728;42.722;23.258;2023-02-28T14:02:47;95184.47;;;12.35;79.04
11347;BME280;5728;42.722;23.258;2023-02-28T14:05:20;95174.84;;;12.40;79.01
11347;BME280;5728;42.722;23.258;2023-02-28T14:07:53;95178.53;;;12.27;79.30
11347;BME280;5728;42.722;23.258;2023-02-28T14:10:26;95180.53;;;12.09;79.81
11347;BME280;5728;42.722;23.258;2023-02-28T14:13:14;95187.34;;;12.16;79.96
11347;BME280;5728;42.722;23.258;2023-02-28T14:16:04;95175.81;;;12.34;78.84